Información del aeropuerto LECO

Información de pista
Pista 03 Longitud 6358 ft Anchura 148 ft
Elevación 327 ft Umbral 0 ft Rumbo 31
Pista 21 Longitud 6358 ft Anchura 148 ft
Elevación 286 ft Umbral 0 ft Rumbo 211
Frecuencias del aeropuerto
Tipo APP Nombre SANTIAGO A Frecuencia 120.2 MHZ
Tipo GND Nombre GND Frecuencia 121.7 MHZ
Tipo TWR Nombre A Coruña T Frecuencia 118.3 MHZ
Radioayudas del aeropuerto
Tipo NDB Nombre La Coruna Frecuencia 401 KHZ
Tipo VOR-DME Nombre La Coruna Frecuencia 115100 KHZ
Información meteorológica del aeropuerto y NOTAM
ADDS - METARS form results

(2256 UTC 17 April 2021)
Data provider http://aviationweather.gov/metar/data/
 
METAR text: LECO 172230Z VRB02KT CAVOK 10/03 Q1021 NOSIG
Conditions at: LECO (LA CORUNA/ALVEDR, ES) observed 2230 UTC 17 April 2021
Temperature: 10.0°C (50°F)
Dewpoint: 3.0°C (37°F) [RH = 62%]
Pressure (altimeter): 30.15 inches Hg (1021.0 mb)
Winds: variable direction winds at 2 MPH (2 knots; 1.0 m/s)
Visibility: 6 or more miles (10+ km)
Ceiling: ceiling and visibility are OK
Clouds: unknown
Weather: no significant weather observed at this time

METAR text: LECO 172200Z 09003KT 060V120 CAVOK 10/03 Q1021 NOSIG
Conditions at: LECO (LA CORUNA/ALVEDR, ES) observed 2200 UTC 17 April 2021
Temperature: 10.0°C (50°F)
Dewpoint: 3.0°C (37°F) [RH = 62%]
Pressure (altimeter): 30.15 inches Hg (1021.0 mb)
Winds: from the E (90 degrees) at 3 MPH (3 knots; 1.5 m/s)
Visibility: 6 or more miles (10+ km)
Ceiling: ceiling and visibility are OK
Clouds: unknown
Weather: no significant weather observed at this time

Forecast for: LECO (LA CORUNA/ALVEDR, ES)
Text: TAF LECO 172000Z 1721/1821 VRB04KT CAVOK TX21/1813Z TN02/1806Z
Forecast period: 2100 UTC 17 April 2021 to 2100 UTC 18 April 2021
Forecast type: FROM: standard forecast or significant change
Winds: variable direction winds at 5 MPH (4 knots; 2.1 m/s)
Visibility: 6 or more miles (10+ km)
Ceiling: unknown
Clouds: missing
Weather: no significant weather forecast for this period
Text: PROB40
Forecast period: 1100 to 1900 UTC 18 April 2021
Forecast type: TEMPORARY: The following changes expected for less than half the time period
Winds: from the NNW (340 degrees) at 12 MPH (10 knots; 5.1 m/s)
Visibility: missing
Ceiling: unknown
Clouds: missing
Weather: no significant weather forecast for this period